createdAt,value
2023-04-25T00:04:59.470Z,12.90
2023-04-25T00:10:03.573Z,12.90
2023-04-25T00:15:08.715Z,12.90
2023-04-25T00:20:12.787Z,12.90
2023-04-25T00:25:15.780Z,12.80
2023-04-25T00:30:18.819Z,12.80
2023-04-25T00:35:22.234Z,12.70
2023-04-25T00:40:25.349Z,12.70
2023-04-25T00:45:30.852Z,12.60
2023-04-25T00:50:35.447Z,12.60
2023-04-25T00:55:38.477Z,12.60
2023-04-25T01:00:42.995Z,12.60
2023-04-25T01:05:46.701Z,12.60
2023-04-25T01:10:49.688Z,12.50
2023-04-25T01:15:52.677Z,12.50
2023-04-25T01:20:56.652Z,12.50
2023-04-25T01:25:59.936Z,12.50
2023-04-25T01:31:03.447Z,12.40
2023-04-25T01:36:07.240Z,12.40
2023-04-25T01:41:10.571Z,12.30
2023-04-25T01:46:14.216Z,12.30
2023-04-25T01:51:17.272Z,12.20
2023-04-25T01:56:20.311Z,12.20
2023-04-25T02:01:23.668Z,12.20
2023-04-25T02:06:26.687Z,12.20
2023-04-25T02:11:29.735Z,12.30
2023-04-25T02:16:33.383Z,12.30
2023-04-25T02:21:36.922Z,12.30
2023-04-25T02:26:39.915Z,12.30
2023-04-25T02:31:43.754Z,12.30
2023-04-25T02:36:46.850Z,12.30
2023-04-25T02:41:49.775Z,12.30
2023-04-25T02:46:52.850Z,12.30
2023-04-25T02:51:55.952Z,12.40
2023-04-25T02:56:59.052Z,12.40
2023-04-25T03:02:02.752Z,12.40
2023-04-25T03:07:05.955Z,12.30
2023-04-25T03:12:08.968Z,12.30
2023-04-25T03:17:11.901Z,12.30
2023-04-25T03:22:14.989Z,12.20
2023-04-25T03:27:18.801Z,12.10
2023-04-25T03:32:22.010Z,12.10
2023-04-25T03:37:25.316Z,12.00
2023-04-25T03:42:28.361Z,12.00
2023-04-25T03:47:31.359Z,12.00
2023-04-25T03:52:34.272Z,11.90
2023-04-25T03:57:37.230Z,11.90
2023-04-25T04:02:41.420Z,11.80
2023-04-25T04:07:46.219Z,11.80
2023-04-25T04:12:49.219Z,11.70
2023-04-25T04:17:52.920Z,11.60
2023-04-25T04:22:55.934Z,11.60
2023-04-25T04:28:00.087Z,11.50
2023-04-25T04:33:04.555Z,11.40
2023-04-25T04:38:07.509Z,11.40
2023-04-25T04:43:11.280Z,11.30
2023-04-25T04:48:15.106Z,11.20
2023-04-25T04:53:18.201Z,11.10
2023-04-25T04:58:21.353Z,11.10
2023-04-25T05:03:24.436Z,11.10
2023-04-25T05:08:27.563Z,11.00
2023-04-25T05:13:30.705Z,11.00
2023-04-25T05:18:33.682Z,10.90
2023-04-25T05:23:36.628Z,10.90
2023-04-25T05:28:43.338Z,10.80
2023-04-25T05:33:46.401Z,10.80
2023-04-25T05:38:49.310Z,10.70
2023-04-25T05:43:53.558Z,10.60
2023-04-25T05:48:57.769Z,10.60
2023-04-25T05:54:00.908Z,10.50
2023-04-25T05:59:04.286Z,10.40
2023-04-25T06:04:07.420Z,10.30
2023-04-25T06:09:11.814Z,10.10
2023-04-25T06:14:16.282Z,10.00
2023-04-25T06:19:20.309Z,9.90
2023-04-25T06:24:23.288Z,9.90
2023-04-25T06:29:26.366Z,9.80
2023-04-25T06:34:29.344Z,9.80
2023-04-25T06:39:32.804Z,9.90
2023-04-25T06:44:37.216Z,9.90
2023-04-25T06:49:40.368Z,10.00
2023-04-25T06:54:43.318Z,10.10
2023-04-25T06:59:46.968Z,10.20
2023-04-25T07:04:50.049Z,10.20
2023-04-25T07:09:53.161Z,10.30
2023-04-25T07:14:56.157Z,10.40
2023-04-25T07:19:59.377Z,10.50
2023-04-25T07:25:02.522Z,10.60
2023-04-25T07:30:08.304Z,10.70
2023-04-25T07:35:11.363Z,10.80
2023-04-25T07:40:16.789Z,10.90
2023-04-25T07:45:19.872Z,11.10
2023-04-25T07:50:23.155Z,11.20
2023-04-25T07:55:27.805Z,11.40
2023-04-25T08:00:30.766Z,11.50
2023-04-25T08:05:35.856Z,11.60
2023-04-25T08:10:38.932Z,11.80
2023-04-25T08:15:42.071Z,12.00
2023-04-25T08:20:48.026Z,12.20
2023-04-25T08:25:51.153Z,12.40
2023-04-25T08:30:54.630Z,12.60
2023-04-25T08:35:58.937Z,12.70
2023-04-25T08:41:02.464Z,12.90
2023-04-25T08:46:07.122Z,12.90
2023-04-25T08:51:16.474Z,12.90
2023-04-25T08:56:23.199Z,12.90
2023-04-25T09:01:26.928Z,13.00
2023-04-25T09:06:35.743Z,13.00
2023-04-25T09:11:39.142Z,13.10
2023-04-25T09:17:05.760Z,13.20
2023-04-25T09:22:10.363Z,13.30
2023-04-25T09:27:20.062Z,13.30
2023-04-25T09:32:25.730Z,13.30
2023-04-25T09:37:31.390Z,13.40
2023-04-25T09:42:35.747Z,13.60
2023-04-25T09:47:39.924Z,13.70
2023-04-25T09:52:45.424Z,14.00
2023-04-25T09:57:53.788Z,14.20
2023-04-25T10:03:04.823Z,14.30
2023-04-25T10:08:09.759Z,14.30
2023-04-25T10:13:15.829Z,14.40
2023-04-25T10:18:20.959Z,14.40
2023-04-25T10:23:26.119Z,14.40
2023-04-25T10:28:33.633Z,14.40
2023-04-25T10:33:43.119Z,14.30
2023-04-25T10:38:48.286Z,14.40
2023-04-25T10:44:02.321Z,14.30
2023-04-25T10:49:05.569Z,14.30
2023-04-25T10:54:09.920Z,14.30
2023-04-25T10:59:20.681Z,14.50
2023-04-25T11:04:37.425Z,14.80
2023-04-25T11:09:42.223Z,15.10
2023-04-25T11:14:45.489Z,15.70
2023-04-25T11:19:50.476Z,15.80
2023-04-25T11:24:53.870Z,16.00
2023-04-25T11:29:57.008Z,15.90
2023-04-25T11:35:01.143Z,16.10
2023-04-25T11:40:07.542Z,16.30
2023-04-25T11:45:11.790Z,16.80
2023-04-25T11:50:15.401Z,17.00
2023-04-25T11:55:21.196Z,16.70
2023-04-25T12:00:25.209Z,16.40
2023-04-25T12:05:33.767Z,16.30
2023-04-25T12:10:43.936Z,16.30
2023-04-25T12:15:47.157Z,16.30
2023-04-25T12:20:50.036Z,16.40
2023-04-25T12:25:53.752Z,16.30
2023-04-25T12:31:04.269Z,16.40
2023-04-25T12:36:12.217Z,16.90
2023-04-25T12:41:15.680Z,17.70
2023-04-25T12:46:18.707Z,18.60
2023-04-25T12:51:21.837Z,19.40
2023-04-25T12:56:25.886Z,20.00
2023-04-25T13:01:29.080Z,20.00
2023-04-25T13:06:32.465Z,20.20
2023-04-25T13:11:35.657Z,20.50
2023-04-25T13:16:38.705Z,20.70
2023-04-25T13:21:41.686Z,21.00
2023-04-25T13:26:45.117Z,21.00
2023-04-25T13:31:48.030Z,21.20
2023-04-25T13:36:51.118Z,21.40
2023-04-25T13:41:54.152Z,21.90
2023-04-25T13:46:57.312Z,21.90
2023-04-25T13:52:00.354Z,21.20
2023-04-25T13:57:03.727Z,21.00
2023-04-25T14:02:06.753Z,21.20
2023-04-25T14:07:10.172Z,21.40
2023-04-25T14:12:13.375Z,21.10
2023-04-25T14:17:16.485Z,21.20
2023-04-25T14:22:20.188Z,21.00
2023-04-25T14:27:23.576Z,21.20
2023-04-25T14:32:26.896Z,21.80
2023-04-25T14:37:29.887Z,21.90
2023-04-25T14:42:34.056Z,21.80
2023-04-25T14:47:40.420Z,21.70
2023-04-25T14:52:44.005Z,21.90
2023-04-25T14:57:47.068Z,21.70
2023-04-25T15:02:50.634Z,21.40
2023-04-25T15:07:53.853Z,20.70
2023-04-25T15:12:57.124Z,20.00
2023-04-25T15:18:01.073Z,19.10
2023-04-25T15:23:05.882Z,18.30
2023-04-25T15:28:08.898Z,17.70
2023-04-25T15:33:12.070Z,17.30
2023-04-25T15:38:15.193Z,17.20
2023-04-25T15:43:18.153Z,17.10
2023-04-25T15:48:21.270Z,16.90
2023-04-25T15:53:24.357Z,16.70
2023-04-25T15:58:27.793Z,16.80
2023-04-25T16:03:33.773Z,16.80
2023-04-25T16:08:39.039Z,16.50
2023-04-25T16:13:42.040Z,16.50
2023-04-25T16:18:45.066Z,16.50
2023-04-25T16:23:48.329Z,16.30
2023-04-25T16:28:52.662Z,15.70
2023-04-25T16:33:55.849Z,15.10
2023-04-25T16:39:01.143Z,14.70
2023-04-25T16:44:06.726Z,14.40
2023-04-25T16:49:09.725Z,14.10
2023-04-25T16:54:13.005Z,14.00
2023-04-25T16:59:15.970Z,13.90
2023-04-25T17:04:19.059Z,13.90
2023-04-25T17:09:22.186Z,13.80
2023-04-25T17:14:25.249Z,13.80
2023-04-25T17:19:28.661Z,13.70
2023-04-25T17:24:31.703Z,13.60
2023-04-25T17:29:35.314Z,13.40
2023-04-25T17:34:40.191Z,13.30
2023-04-25T17:39:46.947Z,13.10
2023-04-25T17:44:50.187Z,13.00
2023-04-25T17:49:56.666Z,12.80
2023-04-25T17:54:59.755Z,12.70
2023-04-25T18:00:05.788Z,12.50
2023-04-25T18:05:10.994Z,12.30
2023-04-25T18:10:15.000Z,12.20
2023-04-25T18:15:18.404Z,12.10
2023-04-25T18:20:22.375Z,12.00
2023-04-25T18:25:25.362Z,11.90
2023-04-25T18:30:31.861Z,11.80
2023-04-25T18:35:35.994Z,11.80
2023-04-25T18:40:56.437Z,11.80
2023-04-25T18:46:03.002Z,11.80
2023-04-25T18:51:06.157Z,11.70
2023-04-25T18:56:09.880Z,11.60
2023-04-25T19:01:13.284Z,11.50
2023-04-25T19:06:16.762Z,11.40
2023-04-25T19:11:21.486Z,11.40
2023-04-25T19:16:26.518Z,11.30
2023-04-25T19:21:29.738Z,11.20
2023-04-25T19:26:32.953Z,11.10
2023-04-25T19:31:37.990Z,11.00
2023-04-25T19:36:42.634Z,11.00
2023-04-25T19:41:45.820Z,11.00
2023-04-25T19:46:49.618Z,11.10
2023-04-25T19:51:52.831Z,11.20
2023-04-25T19:56:56.293Z,11.20
2023-04-25T20:02:00.917Z,11.20
2023-04-25T20:07:04.537Z,11.20
2023-04-25T20:12:07.902Z,11.10
2023-04-25T20:17:11.276Z,11.00
2023-04-25T20:22:14.318Z,10.80
2023-04-25T20:27:17.269Z,10.70
2023-04-25T20:32:20.994Z,10.60
2023-04-25T20:37:24.040Z,10.50
2023-04-25T20:42:27.056Z,10.40
2023-04-25T20:47:30.219Z,10.30
2023-04-25T20:52:33.667Z,10.20
2023-04-25T20:57:37.252Z,10.20
2023-04-25T21:02:40.324Z,10.10
2023-04-25T21:07:43.460Z,10.20
2023-04-25T21:12:50.135Z,10.30
2023-04-25T21:17:53.238Z,10.40
2023-04-25T21:22:56.182Z,10.50
2023-04-25T21:28:00.028Z,10.40
2023-04-25T21:33:03.601Z,10.20
2023-04-25T21:38:07.581Z,10.00
2023-04-25T21:43:10.650Z,9.90
2023-04-25T21:48:13.666Z,9.80
2023-04-25T21:53:16.819Z,9.70
2023-04-25T21:58:19.852Z,9.60
2023-04-25T22:03:22.993Z,9.60
2023-04-25T22:08:26.072Z,9.50
2023-04-25T22:13:29.106Z,9.50
2023-04-25T22:18:32.060Z,9.50
2023-04-25T22:23:35.027Z,9.40
2023-04-25T22:28:39.751Z,9.40
2023-04-25T22:33:46.990Z,9.40
2023-04-25T22:38:50.876Z,9.30
2023-04-25T22:43:54.039Z,9.30
2023-04-25T22:48:57.590Z,9.30
2023-04-25T22:54:01.567Z,9.30
2023-04-25T22:59:04.674Z,9.40
2023-04-25T23:04:08.026Z,9.50
2023-04-25T23:09:12.639Z,9.70
2023-04-25T23:14:15.771Z,10.00
2023-04-25T23:19:18.656Z,10.30
2023-04-25T23:24:21.548Z,10.50
2023-04-25T23:29:24.553Z,10.70
2023-04-25T23:34:31.666Z,10.70
2023-04-25T23:39:34.708Z,10.80
2023-04-25T23:44:37.591Z,10.70
2023-04-25T23:49:41.166Z,10.80
2023-04-25T23:54:44.172Z,10.70
2023-04-25T23:59:47.221Z,10.60
